createdAt,value
2022-12-24T00:01:02.760Z,49.15
2022-12-24T00:03:30.169Z,65.93
2022-12-24T00:05:57.487Z,94.38
2022-12-24T00:08:28.545Z,120.97
2022-12-24T00:10:55.813Z,111.05
2022-12-24T00:13:23.877Z,140.82
2022-12-24T00:15:51.663Z,128.95
2022-12-24T00:18:18.989Z,120.15
2022-12-24T00:20:48.248Z,108.43
2022-12-24T00:23:18.390Z,84.75
2022-12-24T00:25:47.138Z,82.50
2022-12-24T00:28:15.740Z,79.78
2022-12-24T00:30:43.333Z,68.45
2022-12-24T00:33:25.707Z,70.22
2022-12-24T00:35:53.537Z,70.80
2022-12-24T00:38:24.181Z,75.20
2022-12-24T00:40:51.449Z,63.75
2022-12-24T00:43:18.601Z,58.65
2022-12-24T00:45:45.617Z,58.22
2022-12-24T00:48:12.980Z,58.42
2022-12-24T00:50:41.399Z,63.30
2022-12-24T00:53:10.589Z,47.95
2022-12-24T00:55:37.659Z,48.80
2022-12-24T00:58:04.833Z,55.78
2022-12-24T01:00:31.901Z,61.35
2022-12-24T01:02:59.245Z,55.60
2022-12-24T01:05:26.661Z,57.13
2022-12-24T01:07:55.366Z,62.85
2022-12-24T01:10:22.902Z,60.88
2022-12-24T01:13:03.037Z,58.10
2022-12-24T01:15:30.527Z,39.87
2022-12-24T01:17:59.410Z,53.38
2022-12-24T01:20:31.755Z,54.60
2022-12-24T01:22:59.605Z,49.55
2022-12-24T01:25:26.775Z,41.28
2022-12-24T01:27:53.891Z,49.78
2022-12-24T01:30:21.083Z,49.83
2022-12-24T01:32:48.184Z,55.25
2022-12-24T01:35:17.770Z,57.17
2022-12-24T01:37:44.796Z,55.15
2022-12-24T01:40:37.923Z,50.25
2022-12-24T01:43:28.424Z,50.95
2022-12-24T01:46:04.890Z,51.60
2022-12-24T01:48:37.372Z,50.05
2022-12-24T01:51:24.974Z,46.05
2022-12-24T01:53:57.501Z,47.65
2022-12-24T01:56:27.342Z,40.92
2022-12-24T01:59:02.583Z,41.28
2022-12-24T02:01:34.085Z,43.17
2022-12-24T02:04:42.672Z,27.35
2022-12-24T02:09:39.275Z,23.45
2022-12-24T02:12:07.949Z,26.60
2022-12-24T02:14:36.561Z,21.00
2022-12-24T02:17:32.254Z,22.13
2022-12-24T02:20:36.890Z,19.70
2022-12-24T02:23:22.442Z,20.13
2022-12-24T02:26:12.280Z,25.27
2022-12-24T02:29:00.835Z,21.67
2022-12-24T02:31:39.279Z,24.48
2022-12-24T02:34:37.104Z,25.38
2022-12-24T02:37:10.452Z,26.13
2022-12-24T02:39:47.981Z,24.02
2022-12-24T02:42:21.045Z,25.45
2022-12-24T02:45:05.795Z,29.60
2022-12-24T02:47:34.723Z,29.75
2022-12-24T02:50:06.553Z,25.08
2022-12-24T02:52:45.278Z,26.90
2022-12-24T02:55:40.004Z,26.63
2022-12-24T02:58:26.713Z,29.92
2022-12-24T03:00:56.720Z,33.88
2022-12-24T03:03:48.829Z,37.45
2022-12-24T03:06:52.998Z,42.70
2022-12-24T03:09:59.994Z,40.10
2022-12-24T03:12:50.142Z,43.35
2022-12-24T03:15:20.494Z,42.50
2022-12-24T03:17:50.558Z,43.30
2022-12-24T03:20:26.838Z,45.35
2022-12-24T03:22:55.126Z,40.88
2022-12-24T03:25:26.062Z,38.80
2022-12-24T03:27:55.257Z,33.70
2022-12-24T03:30:22.985Z,39.65
2022-12-24T03:32:50.162Z,38.60
2022-12-24T03:35:17.941Z,37.30
2022-12-24T03:37:45.591Z,41.42
2022-12-24T03:40:12.793Z,45.08
2022-12-24T03:42:40.479Z,40.53
2022-12-24T03:45:08.463Z,49.33
2022-12-24T03:47:35.814Z,72.65
2022-12-24T03:50:15.274Z,60.40
2022-12-24T03:52:45.462Z,58.47
2022-12-24T03:58:07.323Z,56.35
2022-12-24T04:00:34.274Z,59.38
2022-12-24T04:03:01.520Z,64.40
2022-12-24T04:05:28.815Z,123.50
2022-12-24T04:07:55.744Z,96.35
2022-12-24T04:10:22.990Z,95.25
2022-12-24T04:12:50.028Z,84.50
2022-12-24T04:15:17.561Z,96.28
2022-12-24T04:17:45.017Z,86.75
2022-12-24T04:20:12.590Z,89.22
2022-12-24T04:22:39.825Z,89.00
2022-12-24T04:25:07.795Z,84.13
2022-12-24T04:27:34.686Z,88.75
2022-12-24T04:30:01.889Z,79.07
2022-12-24T04:32:29.146Z,75.80
2022-12-24T04:34:56.323Z,72.88
2022-12-24T04:37:23.947Z,67.38
2022-12-24T04:39:51.159Z,75.05
2022-12-24T04:42:18.279Z,71.68
2022-12-24T04:44:45.501Z,75.20
2022-12-24T04:47:12.976Z,51.00
2022-12-24T04:49:39.836Z,55.33
2022-12-24T04:52:07.197Z,52.30
2022-12-24T04:54:34.387Z,51.35
2022-12-24T04:57:01.591Z,54.95
2022-12-24T04:59:28.815Z,62.40
2022-12-24T05:01:55.877Z,81.82
2022-12-24T05:04:23.057Z,81.60
2022-12-24T05:06:50.131Z,69.30
2022-12-24T05:09:17.271Z,66.00
2022-12-24T05:11:44.259Z,78.25
2022-12-24T05:14:11.498Z,75.60
2022-12-24T05:16:39.433Z,74.75
2022-12-24T05:19:07.179Z,82.53
2022-12-24T05:21:34.883Z,74.72
2022-12-24T05:24:21.648Z,87.15
2022-12-24T05:26:57.739Z,71.28
2022-12-24T05:29:27.897Z,72.20
2022-12-24T05:31:55.047Z,49.83
2022-12-24T05:34:22.128Z,74.05
2022-12-24T05:36:52.234Z,73.13
2022-12-24T05:39:19.734Z,73.88
2022-12-24T05:41:47.758Z,77.15
2022-12-24T05:44:16.726Z,84.85
2022-12-24T05:46:45.085Z,70.25
2022-12-24T05:49:12.963Z,76.75
2022-12-24T05:51:43.296Z,79.35
2022-12-24T05:54:10.643Z,72.40
2022-12-24T05:56:38.331Z,86.90
2022-12-24T05:59:05.448Z,79.88
2022-12-24T06:01:32.865Z,111.05
2022-12-24T06:04:00.544Z,109.70
2022-12-24T06:06:30.241Z,132.68
2022-12-24T06:08:59.220Z,143.63
2022-12-24T06:11:30.414Z,143.00
2022-12-24T06:13:58.148Z,135.65
2022-12-24T06:16:25.912Z,121.82
2022-12-24T06:18:53.529Z,123.63
2022-12-24T06:21:21.503Z,126.15
2022-12-24T06:23:48.819Z,143.10
2022-12-24T06:26:23.662Z,139.50
2022-12-24T06:29:20.308Z,150.18
2022-12-24T06:31:50.919Z,151.68
2022-12-24T06:34:18.440Z,179.95
2022-12-24T06:36:46.209Z,187.55
2022-12-24T06:39:13.411Z,229.77
2022-12-24T06:41:41.507Z,288.15
2022-12-24T06:44:09.604Z,217.02
2022-12-24T06:46:40.984Z,225.50
2022-12-24T06:49:09.962Z,254.48
2022-12-24T06:51:38.510Z,235.73
2022-12-24T06:54:06.103Z,238.07
2022-12-24T06:56:34.789Z,255.45
2022-12-24T06:59:05.521Z,247.27
2022-12-24T07:01:33.908Z,237.50
2022-12-24T07:04:01.634Z,227.70
2022-12-24T07:06:30.723Z,239.68
2022-12-24T07:08:59.242Z,205.02
2022-12-24T07:11:30.749Z,177.23
2022-12-24T07:13:58.241Z,138.85
2022-12-24T07:16:26.517Z,101.90
2022-12-24T07:18:54.283Z,122.20
2022-12-24T07:21:24.615Z,112.20
2022-12-24T07:23:51.881Z,112.40
2022-12-24T07:26:19.807Z,138.07
2022-12-24T07:28:46.922Z,137.27
2022-12-24T07:31:14.338Z,181.63
2022-12-24T07:33:42.208Z,224.27
2022-12-24T07:36:15.379Z,182.88
2022-12-24T07:38:44.579Z,160.10
2022-12-24T07:41:11.877Z,139.43
2022-12-24T07:43:39.705Z,131.57
2022-12-24T07:46:08.656Z,118.13
2022-12-24T07:48:35.806Z,125.35
2022-12-24T07:51:03.162Z,186.77
2022-12-24T07:53:31.286Z,146.50
2022-12-24T07:55:59.408Z,105.78
2022-12-24T07:58:28.559Z,114.07
2022-12-24T08:00:57.660Z,105.78
2022-12-24T08:03:25.951Z,112.15
2022-12-24T08:05:54.008Z,106.90
2022-12-24T08:08:21.831Z,85.90
2022-12-24T08:10:49.055Z,65.90
2022-12-24T08:13:18.183Z,55.42
2022-12-24T08:15:46.172Z,64.85
2022-12-24T08:18:20.384Z,112.43
2022-12-24T08:20:49.413Z,58.47
2022-12-24T08:23:17.972Z,69.57
2022-12-24T08:25:47.907Z,56.15
2022-12-24T08:28:18.805Z,63.08
2022-12-24T08:30:50.096Z,73.03
2022-12-24T08:33:19.721Z,61.78
2022-12-24T08:35:51.330Z,55.03
2022-12-24T08:38:21.148Z,41.63
2022-12-24T08:40:50.388Z,37.20
2022-12-24T08:43:18.020Z,16.40
2022-12-24T08:45:48.510Z,13.93
2022-12-24T08:48:16.616Z,14.48
2022-12-24T08:50:44.423Z,10.82
2022-12-24T08:53:13.335Z,14.77
2022-12-24T08:55:40.614Z,12.02
2022-12-24T08:58:08.900Z,14.02
2022-12-24T09:00:37.053Z,6.68
2022-12-24T09:03:07.062Z,5.60
2022-12-24T09:05:34.233Z,9.02
2022-12-24T09:08:02.413Z,10.00
2022-12-24T09:10:29.640Z,10.15
2022-12-24T09:12:57.165Z,10.82
2022-12-24T09:15:24.466Z,6.85
2022-12-24T09:17:52.347Z,10.60
2022-12-24T09:20:19.741Z,12.57
2022-12-24T09:22:50.751Z,21.60
2022-12-24T09:25:18.239Z,19.40
2022-12-24T09:27:46.662Z,15.27
2022-12-24T09:30:14.464Z,11.13
2022-12-24T09:32:45.642Z,14.77
2022-12-24T09:35:12.903Z,11.95
2022-12-24T09:37:40.047Z,13.98
2022-12-24T09:40:17.723Z,11.77
2022-12-24T09:42:57.309Z,10.65
2022-12-24T09:45:36.126Z,7.22
2022-12-24T09:48:12.587Z,11.90
2022-12-24T09:50:45.452Z,16.77
2022-12-24T09:54:04.948Z,6.75
2022-12-24T09:56:47.067Z,7.43
2022-12-24T09:59:44.119Z,9.63
2022-12-24T10:02:16.477Z,5.47
2022-12-24T10:04:46.058Z,7.75
2022-12-24T10:07:25.433Z,5.75
2022-12-24T10:10:14.282Z,8.73
2022-12-24T10:12:57.421Z,7.45
2022-12-24T10:15:49.709Z,9.70
2022-12-24T10:18:44.225Z,6.53
2022-12-24T10:21:51.956Z,6.28
2022-12-24T10:24:22.436Z,5.88
2022-12-24T10:26:58.194Z,4.20
2022-12-24T10:29:31.311Z,4.50
2022-12-24T10:32:07.624Z,5.50
2022-12-24T10:35:02.858Z,6.70
2022-12-24T10:37:35.830Z,16.25
2022-12-24T10:40:04.749Z,12.38
2022-12-24T10:42:51.087Z,54.50
2022-12-24T10:45:22.270Z,19.48
2022-12-24T10:47:55.843Z,27.98
2022-12-24T10:50:35.642Z,71.80
2022-12-24T10:53:14.611Z,78.25
2022-12-24T10:55:42.075Z,37.40
2022-12-24T10:58:17.735Z,29.55
2022-12-24T11:00:53.025Z,42.45
2022-12-24T11:03:30.208Z,42.38
2022-12-24T11:06:06.183Z,12.85
2022-12-24T11:08:35.059Z,12.93
2022-12-24T11:11:06.415Z,19.25
2022-12-24T11:13:44.938Z,17.48
2022-12-24T11:16:18.515Z,14.60
2022-12-24T11:18:52.579Z,16.70
2022-12-24T11:21:32.987Z,11.75
2022-12-24T11:24:20.279Z,10.98
2022-12-24T11:26:48.318Z,12.73
2022-12-24T11:29:24.418Z,14.40
2022-12-24T11:31:53.638Z,13.70
2022-12-24T11:34:33.794Z,15.35
2022-12-24T11:37:23.201Z,18.23
2022-12-24T11:40:00.904Z,22.63
2022-12-24T11:42:40.952Z,27.00
2022-12-24T11:45:21.365Z,16.13
2022-12-24T11:47:49.323Z,12.52
2022-12-24T11:50:29.570Z,13.75
2022-12-24T11:53:05.636Z,10.93
2022-12-24T11:55:56.113Z,10.73
2022-12-24T11:58:23.389Z,9.00
2022-12-24T12:00:52.789Z,14.18
2022-12-24T12:03:33.209Z,19.83
2022-12-24T12:06:04.181Z,27.67
2022-12-24T12:11:03.387Z,41.47
2022-12-24T12:13:39.343Z,21.60
2022-12-24T12:16:24.842Z,42.97
2022-12-24T12:19:00.793Z,22.38
2022-12-24T12:21:40.669Z,17.58
2022-12-24T12:24:16.276Z,22.75
2022-12-24T12:26:48.330Z,30.85
2022-12-24T12:29:33.090Z,57.22
2022-12-24T12:32:10.700Z,28.13
2022-12-24T12:35:27.421Z,20.15
2022-12-24T12:38:12.787Z,23.38
2022-12-24T12:40:59.624Z,29.60
2022-12-24T12:43:42.198Z,28.48
2022-12-24T12:46:19.060Z,22.08
2022-12-24T12:49:05.188Z,36.55
2022-12-24T12:51:42.852Z,34.55
2022-12-24T12:54:21.489Z,27.67
2022-12-24T12:57:11.657Z,27.48
2022-12-24T13:00:12.323Z,36.92
2022-12-24T13:02:58.925Z,32.25
2022-12-24T13:06:31.933Z,25.70
2022-12-24T13:09:17.482Z,17.95
2022-12-24T13:12:14.368Z,16.73
2022-12-24T13:15:11.318Z,12.82
2022-12-24T13:17:50.715Z,18.92
2022-12-24T13:20:34.017Z,22.23
2022-12-24T13:23:10.940Z,26.73
2022-12-24T13:25:52.897Z,36.47
2022-12-24T13:28:23.081Z,34.33
2022-12-24T13:31:25.595Z,24.63
2022-12-24T13:33:58.593Z,30.13
2022-12-24T13:37:03.216Z,50.22
2022-12-24T13:40:08.775Z,68.38
2022-12-24T13:42:58.984Z,55.65
2022-12-24T13:45:56.822Z,48.60
2022-12-24T13:48:49.312Z,39.40
2022-12-24T13:51:25.857Z,52.88
2022-12-24T13:53:59.483Z,44.75
2022-12-24T13:56:29.000Z,63.80
2022-12-24T13:59:14.972Z,40.67
2022-12-24T14:01:43.702Z,29.42
2022-12-24T14:04:24.885Z,30.50
2022-12-24T14:06:54.384Z,16.33
2022-12-24T14:09:25.460Z,17.48
2022-12-24T14:12:02.326Z,20.25
2022-12-24T14:14:33.625Z,23.20
2022-12-24T14:17:25.541Z,28.00
2022-12-24T14:20:08.012Z,33.03
2022-12-24T14:22:40.684Z,33.17
2022-12-24T14:25:25.137Z,48.72
2022-12-24T14:27:59.352Z,54.88
2022-12-24T14:30:30.157Z,80.53
2022-12-24T14:32:58.256Z,59.25
2022-12-24T14:35:31.454Z,83.60
2022-12-24T14:38:08.466Z,137.20
2022-12-24T14:40:48.934Z,93.13
2022-12-24T14:43:37.110Z,117.78
2022-12-24T14:46:14.955Z,75.70
2022-12-24T14:48:51.767Z,60.70
2022-12-24T14:51:48.697Z,42.58
2022-12-24T14:54:19.120Z,47.95
2022-12-24T14:56:48.402Z,37.10
2022-12-24T14:59:21.176Z,45.30
2022-12-24T15:01:48.560Z,38.80
2022-12-24T15:04:18.554Z,50.10
2022-12-24T15:06:53.318Z,48.72
2022-12-24T15:09:22.964Z,44.63
2022-12-24T15:11:54.139Z,33.30
2022-12-24T15:14:25.171Z,38.42
2022-12-24T15:17:00.916Z,43.42
2022-12-24T15:19:43.462Z,48.90
2022-12-24T15:22:19.697Z,43.95
2022-12-24T15:24:48.069Z,33.95
2022-12-24T15:27:16.613Z,26.30
2022-12-24T15:29:46.040Z,28.90
2022-12-24T15:32:18.714Z,26.30
2022-12-24T15:34:56.058Z,33.63
2022-12-24T15:37:29.770Z,31.98
2022-12-24T15:40:08.161Z,29.73
2022-12-24T15:42:57.598Z,40.53
2022-12-24T15:45:31.900Z,80.97
2022-12-24T15:48:10.947Z,53.45
2022-12-24T15:50:45.113Z,58.10
2022-12-24T15:53:22.244Z,73.10
2022-12-24T15:56:40.828Z,61.55
2022-12-24T15:59:49.980Z,41.47
2022-12-24T16:02:38.028Z,42.97
2022-12-24T16:05:40.880Z,41.08
2022-12-24T16:08:14.520Z,85.63
2022-12-24T16:11:16.300Z,51.53
2022-12-24T16:13:51.038Z,55.58
2022-12-24T16:16:21.867Z,30.17
2022-12-24T16:18:51.687Z,38.05
2022-12-24T16:21:41.403Z,56.75
2022-12-24T16:24:17.640Z,61.15
2022-12-24T16:26:45.216Z,58.60
2022-12-24T16:29:13.000Z,65.97
2022-12-24T16:31:47.015Z,70.15
2022-12-24T16:34:19.261Z,60.10
2022-12-24T16:36:50.217Z,80.60
2022-12-24T16:39:35.839Z,68.65
2022-12-24T16:42:42.960Z,72.38
2022-12-24T16:45:22.742Z,68.80
2022-12-24T16:48:00.448Z,80.32
2022-12-24T16:50:28.036Z,78.40
2022-12-24T16:52:55.015Z,83.53
2022-12-24T16:55:22.144Z,89.85
2022-12-24T16:57:49.306Z,71.95
2022-12-24T17:00:20.280Z,67.15
2022-12-24T17:02:49.035Z,56.53
2022-12-24T17:05:16.292Z,65.07
2022-12-24T17:07:44.402Z,63.92
2022-12-24T17:10:15.076Z,57.53
2022-12-24T17:12:43.185Z,48.90
2022-12-24T17:15:10.670Z,44.58
2022-12-24T17:17:40.723Z,47.97
2022-12-24T17:20:08.465Z,46.72
2022-12-24T17:22:36.615Z,43.85
2022-12-24T17:25:05.050Z,48.25
2022-12-24T17:27:32.670Z,39.47
2022-12-24T17:30:00.356Z,40.20
2022-12-24T17:32:27.916Z,43.08
2022-12-24T17:34:54.972Z,35.67
2022-12-24T17:37:22.555Z,35.30
2022-12-24T17:39:49.688Z,38.50
2022-12-24T17:42:16.897Z,30.17
2022-12-24T17:44:45.921Z,19.88
2022-12-24T17:47:13.093Z,22.88
2022-12-24T17:49:40.678Z,14.70
2022-12-24T17:52:08.034Z,20.65
2022-12-24T17:54:35.236Z,28.13
2022-12-24T17:57:03.330Z,31.90
2022-12-24T17:59:30.656Z,29.67
2022-12-24T18:01:57.882Z,38.78
2022-12-24T18:04:25.091Z,22.63
2022-12-24T18:06:56.260Z,26.25
2022-12-24T18:09:28.892Z,22.52
2022-12-24T18:11:56.569Z,20.80
2022-12-24T18:14:28.223Z,22.02
2022-12-24T18:16:55.244Z,14.45
2022-12-24T18:19:22.740Z,17.42
2022-12-24T18:21:50.354Z,11.02
2022-12-24T18:24:18.917Z,22.63
2022-12-24T18:27:07.649Z,15.55
2022-12-24T18:29:39.875Z,10.40
2022-12-24T18:32:07.155Z,16.52
2022-12-24T18:35:11.257Z,20.25
2022-12-24T18:37:38.417Z,16.15
2022-12-24T18:40:06.064Z,21.27
2022-12-24T18:42:33.332Z,15.60
2022-12-24T18:45:01.674Z,26.83
2022-12-24T18:47:30.170Z,25.75
2022-12-24T18:49:57.288Z,28.42
2022-12-24T18:52:24.785Z,26.92
2022-12-24T18:54:52.228Z,36.20
2022-12-24T18:57:19.203Z,37.45
2022-12-24T18:59:46.420Z,38.03
2022-12-24T19:02:13.691Z,41.72
2022-12-24T19:04:40.889Z,49.03
2022-12-24T19:07:08.548Z,40.75
2022-12-24T19:09:35.908Z,26.92
2022-12-24T19:12:04.540Z,25.25
2022-12-24T19:14:32.253Z,28.60
2022-12-24T19:16:59.522Z,24.60
2022-12-24T19:19:26.640Z,22.58
2022-12-24T19:21:53.871Z,13.00
2022-12-24T19:24:21.035Z,15.43
2022-12-24T19:26:48.974Z,13.60
2022-12-24T19:29:16.133Z,11.18
2022-12-24T19:31:47.430Z,13.02
2022-12-24T19:36:43.152Z,11.57
2022-12-24T19:39:10.368Z,12.52
2022-12-24T19:41:38.223Z,15.95
2022-12-24T19:44:05.629Z,8.60
2022-12-24T19:46:35.079Z,9.43
2022-12-24T19:49:09.442Z,10.85
2022-12-24T19:51:36.880Z,10.02
2022-12-24T19:54:06.167Z,9.90
2022-12-24T19:56:33.532Z,9.82
2022-12-24T19:59:03.923Z,8.93
2022-12-24T20:01:36.730Z,9.25
2022-12-24T20:04:06.826Z,9.18
2022-12-24T20:06:35.828Z,14.15
2022-12-24T20:09:08.038Z,13.90
2022-12-24T20:11:38.629Z,10.70
2022-12-24T20:14:18.284Z,13.82
2022-12-24T20:16:53.163Z,15.15
2022-12-24T20:19:22.258Z,13.77
2022-12-24T20:21:50.468Z,17.20
2022-12-24T20:24:17.594Z,16.20
2022-12-24T20:26:47.522Z,13.25
2022-12-24T20:29:17.360Z,13.80
2022-12-24T20:31:51.029Z,12.98
2022-12-24T20:34:22.084Z,9.13
2022-12-24T20:36:52.267Z,9.68
2022-12-24T20:39:21.610Z,9.63
2022-12-24T20:41:49.164Z,13.18
2022-12-24T20:44:16.324Z,13.68
2022-12-24T20:46:43.555Z,11.68
2022-12-24T20:49:12.605Z,16.70
2022-12-24T20:51:42.774Z,15.82
2022-12-24T20:54:10.424Z,11.40
2022-12-24T20:56:39.447Z,11.23
2022-12-24T20:59:07.213Z,9.20
2022-12-24T21:01:35.719Z,9.70
2022-12-24T21:04:04.984Z,12.45
2022-12-24T21:06:33.209Z,9.75
2022-12-24T21:09:00.907Z,11.95
2022-12-24T21:11:46.180Z,8.85
2022-12-24T21:14:13.508Z,11.23
2022-12-24T21:16:41.572Z,12.15
2022-12-24T21:19:11.931Z,12.00
2022-12-24T21:21:39.019Z,9.32
2022-12-24T21:24:06.542Z,14.88
2022-12-24T21:26:33.961Z,10.40
2022-12-24T21:29:04.807Z,11.57
2022-12-24T21:31:53.684Z,12.20
2022-12-24T21:34:21.237Z,13.23
2022-12-24T21:36:48.445Z,14.18
2022-12-24T21:39:17.969Z,10.70
2022-12-24T21:41:45.175Z,12.52
2022-12-24T21:44:12.317Z,10.48
2022-12-24T21:46:41.690Z,14.55
2022-12-24T21:49:43.911Z,9.20
2022-12-24T21:52:11.538Z,10.48
2022-12-24T21:54:38.844Z,11.52
2022-12-24T21:57:29.780Z,12.82
2022-12-24T22:00:18.232Z,11.70
2022-12-24T22:02:45.626Z,8.60
2022-12-24T22:05:14.324Z,10.95
2022-12-24T22:08:02.626Z,13.45
2022-12-24T22:10:48.900Z,9.13
2022-12-24T22:13:16.781Z,11.63
2022-12-24T22:15:50.251Z,9.02
2022-12-24T22:18:21.069Z,13.27
2022-12-24T22:20:48.576Z,9.77
2022-12-24T22:23:17.331Z,13.63
2022-12-24T22:25:45.663Z,9.13
2022-12-24T22:28:12.770Z,9.43
2022-12-24T22:30:41.741Z,10.10
2022-12-24T22:33:14.714Z,11.40
2022-12-24T22:35:42.283Z,11.80
2022-12-24T22:38:12.362Z,12.15
2022-12-24T22:40:40.477Z,9.70
2022-12-24T22:43:27.566Z,12.27
2022-12-24T22:45:55.627Z,9.27
2022-12-24T22:48:22.698Z,9.50
2022-12-24T22:50:49.714Z,7.93
2022-12-24T22:53:16.758Z,11.60
2022-12-24T22:55:43.962Z,9.48
2022-12-24T22:58:11.269Z,9.60
2022-12-24T23:00:40.325Z,9.63
2022-12-24T23:03:08.634Z,11.50
2022-12-24T23:05:36.617Z,11.27
2022-12-24T23:08:04.539Z,9.82
2022-12-24T23:10:31.881Z,8.63
2022-12-24T23:13:17.752Z,10.23
2022-12-24T23:15:44.889Z,13.00
2022-12-24T23:18:12.469Z,12.88
2022-12-24T23:20:43.289Z,17.77
2022-12-24T23:23:10.373Z,13.43
2022-12-24T23:25:37.545Z,18.27
2022-12-24T23:28:04.758Z,17.80
2022-12-24T23:30:32.788Z,13.35
2022-12-24T23:32:59.998Z,14.02
2022-12-24T23:35:26.972Z,11.98
2022-12-24T23:37:54.046Z,11.25
2022-12-24T23:40:21.426Z,16.80
2022-12-24T23:42:48.638Z,10.82
2022-12-24T23:45:16.282Z,11.07
2022-12-24T23:47:43.379Z,11.73
2022-12-24T23:50:11.672Z,13.35
2022-12-24T23:52:39.028Z,11.90
2022-12-24T23:55:06.682Z,10.23
2022-12-24T23:57:33.705Z,14.50
